Selma, OR (97538)

1:50 PM PST on January 29, 2015 (GMT -0800)
Oregon Builders Guild LLC 541-415-0101 | Change Station
CLOSE
Current Station
Personal Weather Station
Location: Cave Junction, OR
Elevation: 1343 ft
Nearby Weather Stations
Active Advisory: Air Stagnation Advisory

Elev 1343 ft 42.16 °N, 123.65 °W | Updated 17 seconds ago

Clear
Clear
56.2 °F
Feels Like 56.2 °F
N
0.0
Wind Variable Wind from East

Today
High -- | Low -- °F
--% Chance of Precip.
Yesterday
High -- | Low -- °F
Precip. -- in
7:30 AM 5:24 PM
Waxing Gibbous, 77% visible
Pressure 30.23 in
Visibility 10.0 miles
Clouds Scattered Clouds 11000 ft
Dew Point 46 °F
Humidity 68%
Rainfall 0.00 in
Snow Depth Not available.
UV 2 out of 12
Pollen 5.10 out of 12
Air Quality Not available.
Flu Activity Not available.
METAR KMFR 292053Z 00000KT 10SM SCT110 11/04 A3021 RMK AO2 SLP235 T01110044 58023

More Conditions Fewer Conditions

Pressure 30.23 in
Visibility 10.0 miles
Clouds Scattered Clouds 11000 ft
Dew Point 46 °F
Humidity 68%
Rainfall 0.00 in
Snow Depth Not available.
UV 2 out of 12
Pollen 5.10 out of 12
Air Quality Not available.
Flu Activity Not available.
METAR KMFR 292053Z 00000KT 10SM SCT110 11/04 A3021 RMK AO2 SLP235 T01110044 58023

More Conditions Fewer Conditions

10-Day Weather Forecast

Almanac

Astronomy

Jan. 29, 2015 Rise Set
Actual Time
Civil Twilight
Nautical Twilight
Astronomical Twilight
Moon
Length of Visible Light
Length of Day
Tomorrow will be .
, % of the Moon is Illuminated

Today's Extremes

State Highs State Lows

Community

WunderPhotos

Upload Photos

1,791,615 photos uploaded!

WunderBlogs® & News

Nearby

Air Quality

  Air Quality AQ Index Pollutant
Not available.

Snow Depth

Station Depth Elevation

Earthquake Activity

City Distance Mag. Time & Date
Minimum magnitude displayed is 2.5.

Coastal Water Temperatures

Place Temperature

Nearby Weather Stations